createdAt,value
2019-02-05T00:00:45.382Z,7.60
2019-02-05T00:03:16.947Z,7.13
2019-02-05T00:05:45.849Z,8.10
2019-02-05T00:08:14.717Z,6.10
2019-02-05T00:10:43.602Z,6.33
2019-02-05T00:13:12.843Z,6.77
2019-02-05T00:15:41.663Z,7.83
2019-02-05T00:18:10.523Z,6.63
2019-02-05T00:20:39.484Z,5.93
2019-02-05T00:23:08.267Z,8.70
2019-02-05T00:25:37.142Z,9.37
2019-02-05T00:28:06.075Z,9.73
2019-02-05T00:30:35.030Z,9.53
2019-02-05T00:33:04.397Z,8.63
2019-02-05T00:35:33.244Z,9.30
2019-02-05T00:38:02.232Z,7.97
2019-02-05T00:40:31.099Z,8.07
2019-02-05T00:42:59.998Z,12.00
2019-02-05T00:45:28.810Z,12.07
2019-02-05T00:47:57.707Z,10.80
2019-02-05T00:50:26.583Z,10.73
2019-02-05T00:52:55.493Z,11.20
2019-02-05T00:55:24.403Z,10.13
2019-02-05T00:57:53.391Z,10.53
2019-02-05T01:00:25.374Z,11.33
2019-02-05T01:02:54.663Z,9.50
2019-02-05T01:05:23.768Z,13.13
2019-02-05T01:07:52.938Z,9.33
2019-02-05T01:10:22.675Z,9.87
2019-02-05T01:12:51.763Z,11.70
2019-02-05T01:15:21.275Z,9.50
2019-02-05T01:17:50.207Z,11.50
2019-02-05T01:20:19.293Z,12.80
2019-02-05T01:22:48.553Z,11.30
2019-02-05T01:25:17.917Z,11.47
2019-02-05T01:27:47.517Z,12.07
2019-02-05T01:30:21.715Z,12.13
2019-02-05T01:32:50.775Z,14.43
2019-02-05T01:35:19.729Z,12.47
2019-02-05T01:37:48.680Z,13.60
2019-02-05T01:40:19.329Z,14.03
2019-02-05T01:42:48.562Z,14.53
2019-02-05T01:45:18.937Z,14.63
2019-02-05T01:47:47.908Z,14.47
2019-02-05T01:50:19.786Z,15.87
2019-02-05T01:52:48.662Z,17.17
2019-02-05T01:55:18.564Z,14.63
2019-02-05T01:57:47.555Z,15.30
2019-02-05T02:00:30.610Z,15.47
2019-02-05T02:02:58.617Z,13.80
2019-02-05T02:05:27.631Z,14.53
2019-02-05T02:07:56.978Z,15.83
2019-02-05T02:10:27.575Z,17.30
2019-02-05T02:12:56.666Z,14.93
2019-02-05T02:15:25.630Z,14.93
2019-02-05T02:17:54.696Z,15.93
2019-02-05T02:20:23.675Z,16.40
2019-02-05T02:22:52.636Z,16.03
2019-02-05T02:25:21.787Z,15.93
2019-02-05T02:27:51.251Z,15.93
2019-02-05T02:30:29.256Z,15.47
2019-02-05T02:32:58.275Z,16.20
2019-02-05T02:35:27.358Z,16.37
2019-02-05T02:37:56.674Z,16.13
2019-02-05T02:40:25.573Z,19.83
2019-02-05T02:42:54.446Z,19.77
2019-02-05T02:45:23.414Z,16.30
2019-02-05T02:47:52.447Z,17.73
2019-02-05T02:50:21.486Z,17.00
2019-02-05T02:52:51.203Z,18.73
2019-02-05T02:55:20.483Z,16.20
2019-02-05T02:57:49.608Z,17.80
2019-02-05T03:00:19.681Z,16.87
2019-02-05T03:02:49.008Z,17.13
2019-02-05T03:05:20.123Z,17.30
2019-02-05T03:07:49.391Z,17.63
2019-02-05T03:10:20.753Z,17.93
2019-02-05T03:12:49.744Z,16.53
2019-02-05T03:15:18.691Z,17.90
2019-02-05T03:17:47.726Z,18.33
2019-02-05T03:20:17.138Z,17.17
2019-02-05T03:22:46.217Z,19.63
2019-02-05T03:25:17.586Z,19.63
2019-02-05T03:27:46.655Z,20.40
2019-02-05T03:30:17.923Z,19.90
2019-02-05T03:32:46.887Z,20.73
2019-02-05T03:35:16.467Z,20.20
2019-02-05T03:37:45.492Z,20.23
2019-02-05T03:41:06.908Z,18.30
2019-02-05T03:43:37.255Z,19.40
2019-02-05T03:46:11.254Z,21.13
2019-02-05T03:48:41.590Z,23.60
2019-02-05T03:51:38.283Z,21.00
2019-02-05T03:54:45.918Z,20.23
2019-02-05T03:57:37.524Z,22.50
2019-02-05T04:00:39.518Z,22.87
2019-02-05T04:03:48.047Z,24.23
2019-02-05T04:06:31.974Z,24.23
2019-02-05T04:09:26.133Z,22.70
2019-02-05T04:12:20.780Z,25.23
2019-02-05T04:15:15.424Z,25.60
2019-02-05T04:18:14.638Z,27.47
2019-02-05T04:21:16.253Z,30.20
2019-02-05T04:24:15.479Z,31.33
2019-02-05T04:27:20.759Z,30.00
2019-02-05T04:30:40.002Z,29.37
2019-02-05T04:33:54.738Z,32.50
2019-02-05T04:37:04.778Z,30.93
2019-02-05T04:40:05.880Z,31.03
2019-02-05T04:43:31.226Z,32.57
2019-02-05T04:46:20.560Z,33.17
2019-02-05T04:49:21.888Z,30.87
2019-02-05T04:52:26.653Z,31.97
2019-02-05T04:55:36.675Z,34.67
2019-02-05T04:59:04.776Z,33.93
2019-02-05T05:01:44.737Z,33.83
2019-02-05T05:04:26.894Z,34.40
2019-02-05T05:07:52.184Z,35.97
2019-02-05T05:10:21.062Z,35.47
2019-02-05T05:12:49.963Z,33.20
2019-02-05T05:15:18.990Z,38.73
2019-02-05T05:17:47.822Z,36.50
2019-02-05T05:20:16.857Z,39.97
2019-02-05T05:22:46.300Z,42.17
2019-02-05T05:25:15.331Z,41.10
2019-02-05T05:27:44.299Z,38.43
2019-02-05T05:30:16.599Z,41.23
2019-02-05T05:32:45.542Z,44.47
2019-02-05T05:35:14.708Z,41.77
2019-02-05T05:37:43.554Z,39.73
2019-02-05T05:40:12.868Z,41.57
2019-02-05T05:42:41.779Z,46.13
2019-02-05T05:45:13.330Z,48.50
2019-02-05T05:47:42.205Z,46.10
2019-02-05T05:50:13.972Z,49.87
2019-02-05T05:52:42.877Z,45.20
2019-02-05T05:55:12.258Z,47.37
2019-02-05T05:57:41.153Z,49.47
2019-02-05T06:00:16.343Z,49.80
2019-02-05T06:02:45.320Z,45.87
2019-02-05T06:05:15.822Z,47.27
2019-02-05T06:07:44.870Z,55.63
2019-02-05T06:10:15.044Z,53.07
2019-02-05T06:12:44.027Z,53.00
2019-02-05T06:15:13.421Z,55.93
2019-02-05T06:17:42.438Z,52.17
2019-02-05T06:20:14.373Z,51.60
2019-02-05T06:22:43.331Z,53.60
2019-02-05T06:25:12.747Z,52.10
2019-02-05T06:27:41.871Z,54.43
2019-02-05T06:30:12.134Z,52.93
2019-02-05T06:32:41.083Z,54.40
2019-02-05T06:35:10.862Z,57.80
2019-02-05T06:37:39.830Z,53.17
2019-02-05T06:40:10.203Z,58.77
2019-02-05T06:42:39.208Z,52.90
2019-02-05T06:45:10.854Z,54.87
2019-02-05T06:47:39.886Z,56.40
2019-02-05T06:50:10.035Z,60.00
2019-02-05T06:52:39.106Z,57.03
2019-02-05T06:55:08.646Z,57.90
2019-02-05T06:57:37.624Z,58.93
2019-02-05T07:00:10.535Z,55.10
2019-02-05T07:02:39.432Z,60.53
2019-02-05T07:05:09.610Z,63.57
2019-02-05T07:07:38.454Z,61.27
2019-02-05T07:10:10.562Z,62.70
2019-02-05T07:12:39.456Z,62.60
2019-02-05T07:15:08.962Z,61.77
2019-02-05T07:17:48.919Z,60.07
2019-02-05T07:20:09.299Z,63.03
2019-02-05T07:22:38.208Z,62.57
2019-02-05T07:25:09.109Z,69.67
2019-02-05T07:27:38.001Z,61.90
2019-02-05T07:30:09.352Z,60.83
2019-02-05T07:32:38.182Z,66.07
2019-02-05T07:35:07.414Z,63.93
2019-02-05T07:37:36.447Z,65.80
2019-02-05T07:40:07.578Z,61.07
2019-02-05T07:42:36.748Z,65.13
2019-02-05T07:45:07.611Z,64.07
2019-02-05T07:47:36.486Z,63.40
2019-02-05T07:50:07.348Z,56.03
2019-02-05T07:52:36.299Z,61.03
2019-02-05T07:55:05.760Z,65.37
2019-02-05T07:57:34.669Z,57.27
2019-02-05T08:00:05.438Z,58.10
2019-02-05T08:02:34.243Z,56.20
2019-02-05T08:05:03.227Z,53.33
2019-02-05T08:07:32.200Z,58.50
2019-02-05T08:10:01.166Z,60.80
2019-02-05T08:12:30.057Z,57.80
2019-02-05T08:14:58.964Z,58.13
2019-02-05T08:17:27.917Z,54.80
2019-02-05T08:19:57.086Z,53.37
2019-02-05T08:22:25.963Z,58.67
2019-02-05T08:24:54.863Z,49.33
2019-02-05T08:27:23.751Z,52.07
2019-02-05T08:29:52.631Z,48.00
2019-02-05T08:32:21.682Z,49.50
2019-02-05T08:34:50.479Z,50.23
2019-02-05T08:37:19.760Z,51.83
2019-02-05T08:39:48.769Z,52.30
2019-02-05T08:42:17.791Z,51.00
2019-02-05T08:44:46.667Z,49.70
2019-02-05T08:47:15.619Z,45.67
2019-02-05T08:49:44.596Z,48.90
2019-02-05T08:52:13.575Z,46.80
2019-02-05T08:54:42.666Z,48.53
2019-02-05T08:57:11.589Z,47.23
2019-02-05T08:59:40.484Z,46.63
2019-02-05T09:02:09.640Z,47.57
2019-02-05T09:04:38.519Z,48.03
2019-02-05T09:07:07.563Z,50.50
2019-02-05T09:09:36.451Z,46.23
2019-02-05T09:12:05.832Z,46.83
2019-02-05T09:14:34.715Z,47.60
2019-02-05T09:17:03.686Z,45.53
2019-02-05T09:19:32.575Z,44.47
2019-02-05T09:22:01.550Z,43.43
2019-02-05T09:24:30.450Z,44.70
2019-02-05T09:26:59.414Z,38.60
2019-02-05T09:29:33.337Z,42.60
2019-02-05T09:31:58.829Z,41.67
2019-02-05T09:34:27.787Z,41.37
2019-02-05T09:36:56.659Z,46.17
2019-02-05T09:39:25.635Z,42.07
2019-02-05T09:41:54.592Z,45.67
2019-02-05T09:44:24.055Z,43.83
2019-02-05T09:46:53.086Z,47.50
2019-02-05T09:49:21.995Z,49.53
2019-02-05T09:51:50.860Z,46.83
2019-02-05T09:54:19.822Z,45.90
2019-02-05T09:56:48.726Z,42.63
2019-02-05T09:59:17.639Z,44.33
2019-02-05T10:01:46.938Z,42.43
2019-02-05T10:04:15.888Z,41.47
2019-02-05T10:06:44.938Z,42.70
2019-02-05T10:09:13.816Z,47.40
2019-02-05T10:11:42.714Z,46.00
2019-02-05T10:14:11.678Z,45.37
2019-02-05T10:16:40.654Z,39.93
2019-02-05T10:19:10.035Z,50.20
2019-02-05T10:21:38.926Z,42.57
2019-02-05T10:24:07.961Z,45.40
2019-02-05T10:26:37.030Z,46.80
2019-02-05T10:29:06.036Z,48.23
2019-02-05T10:31:35.022Z,47.67
2019-02-05T10:34:04.114Z,46.23
2019-02-05T10:36:33.388Z,40.60
2019-02-05T10:39:02.214Z,49.17
2019-02-05T10:41:31.362Z,47.17
2019-02-05T10:44:00.310Z,42.57
2019-02-05T10:46:29.225Z,36.73
2019-02-05T10:48:58.106Z,42.63
2019-02-05T10:51:27.019Z,38.60
2019-02-05T10:53:55.840Z,35.50
2019-02-05T10:56:24.754Z,38.33
2019-02-05T10:58:53.794Z,33.47
2019-02-05T11:01:22.763Z,33.73
2019-02-05T11:03:51.626Z,31.70
2019-02-05T11:06:20.601Z,29.50
2019-02-05T11:08:49.569Z,30.23
2019-02-05T11:11:18.533Z,28.03
2019-02-05T11:13:47.506Z,33.00
2019-02-05T11:16:16.535Z,30.07
2019-02-05T11:18:45.443Z,31.10
2019-02-05T11:21:14.334Z,26.27
2019-02-05T11:23:43.222Z,30.07
2019-02-05T11:26:12.199Z,25.53
2019-02-05T11:28:41.186Z,32.10
2019-02-05T11:31:10.147Z,29.90
2019-02-05T11:33:39.207Z,30.00
2019-02-05T11:36:08.257Z,27.07
2019-02-05T11:38:37.156Z,27.50
2019-02-05T11:41:06.122Z,30.03
2019-02-05T11:43:35.480Z,29.87
2019-02-05T11:46:04.719Z,29.90
2019-02-05T11:48:33.693Z,30.77
2019-02-05T11:51:02.650Z,31.67
2019-02-05T11:53:31.626Z,31.37
2019-02-05T11:56:00.612Z,31.90
2019-02-05T11:58:29.522Z,31.77
2019-02-05T12:01:04.062Z,32.80
2019-02-05T12:03:33.122Z,32.67
2019-02-05T12:06:02.093Z,38.00
2019-02-05T12:08:31.080Z,32.47
2019-02-05T12:11:00.035Z,34.37
2019-02-05T12:13:28.919Z,32.90
2019-02-05T12:15:57.956Z,33.90
2019-02-05T12:18:27.218Z,36.37
2019-02-05T12:20:56.198Z,34.83
2019-02-05T12:23:25.253Z,33.60
2019-02-05T12:25:54.132Z,31.93
2019-02-05T12:28:23.039Z,38.17
2019-02-05T12:30:52.054Z,36.77
2019-02-05T12:33:21.061Z,32.90
2019-02-05T12:35:50.023Z,39.83
2019-02-05T12:38:19.163Z,36.43
2019-02-05T12:40:48.257Z,37.53
2019-02-05T12:43:17.366Z,34.07
2019-02-05T12:45:46.384Z,40.07
2019-02-05T12:48:15.530Z,35.03
2019-02-05T12:50:44.878Z,36.90
2019-02-05T12:53:13.961Z,33.37
2019-02-05T12:55:42.955Z,33.90
2019-02-05T12:58:11.916Z,34.73
2019-02-05T13:00:43.123Z,33.57
2019-02-05T13:03:12.659Z,36.70
2019-02-05T13:05:42.843Z,36.10
2019-02-05T13:08:11.771Z,36.03
2019-02-05T13:10:44.525Z,37.23
2019-02-05T13:13:13.616Z,34.30
2019-02-05T13:15:42.674Z,36.20
2019-02-05T13:18:11.621Z,33.60
2019-02-05T13:20:41.047Z,36.47
2019-02-05T13:23:10.543Z,34.17
2019-02-05T13:25:39.842Z,39.40
2019-02-05T13:28:10.914Z,33.57
2019-02-05T13:30:40.072Z,33.10
2019-02-05T13:33:09.217Z,33.77
2019-02-05T13:35:38.806Z,33.20
2019-02-05T13:38:07.879Z,27.83
2019-02-05T13:40:38.339Z,31.87
2019-02-05T13:43:07.826Z,33.17
2019-02-05T13:45:37.378Z,30.57
2019-02-05T13:48:07.424Z,32.70
2019-02-05T13:50:36.690Z,31.43
2019-02-05T13:53:06.663Z,32.60
2019-02-05T13:55:40.702Z,32.40
2019-02-05T13:58:10.183Z,34.03
2019-02-05T14:00:41.502Z,31.07
2019-02-05T14:03:11.273Z,32.30
2019-02-05T14:05:40.353Z,31.73
2019-02-05T14:08:09.628Z,32.57
2019-02-05T14:10:39.017Z,34.23
2019-02-05T14:13:08.244Z,31.83
2019-02-05T14:15:38.875Z,30.43
2019-02-05T14:18:08.986Z,32.53
2019-02-05T14:20:38.055Z,34.50
2019-02-05T14:23:07.071Z,30.97
2019-02-05T14:25:36.059Z,30.47
2019-02-05T14:28:05.294Z,30.70
2019-02-05T14:30:39.776Z,32.03
2019-02-05T14:33:08.802Z,32.87
2019-02-05T14:35:38.105Z,33.10
2019-02-05T14:38:08.382Z,31.97
2019-02-05T14:40:37.409Z,31.60
2019-02-05T14:43:07.188Z,32.33
2019-02-05T14:45:36.862Z,34.63
2019-02-05T14:48:07.130Z,37.23
2019-02-05T14:50:36.148Z,33.53
2019-02-05T14:53:06.670Z,34.13
2019-02-05T14:55:35.626Z,29.43
2019-02-05T14:58:05.655Z,30.60
2019-02-05T15:00:34.695Z,32.50
2019-02-05T15:03:04.855Z,30.07
2019-02-05T15:05:33.911Z,36.27
2019-02-05T15:08:05.757Z,31.90
2019-02-05T15:10:33.533Z,28.47
2019-02-05T15:13:02.521Z,30.33
2019-02-05T15:15:32.075Z,31.53
2019-02-05T15:18:01.001Z,30.80
2019-02-05T15:20:34.543Z,29.43
2019-02-05T15:23:04.111Z,29.87
2019-02-05T15:25:32.971Z,33.43
2019-02-05T15:28:02.131Z,30.20
2019-02-05T15:30:39.624Z,30.63
2019-02-05T15:33:21.690Z,28.23
2019-02-05T15:35:53.593Z,28.03
2019-02-05T15:38:22.650Z,29.20
2019-02-05T15:40:51.576Z,31.07
2019-02-05T15:43:20.532Z,32.77
2019-02-05T15:45:49.543Z,29.13
2019-02-05T15:48:18.436Z,28.80
2019-02-05T15:50:47.303Z,27.97
2019-02-05T15:53:16.194Z,32.60
2019-02-05T15:55:45.534Z,27.17
2019-02-05T15:58:14.503Z,32.20
2019-02-05T16:00:43.442Z,29.77
2019-02-05T16:03:12.323Z,31.13
2019-02-05T16:05:41.129Z,32.03
2019-02-05T16:08:10.003Z,29.13
2019-02-05T16:10:39.251Z,26.83
2019-02-05T16:13:08.076Z,31.70
2019-02-05T16:15:37.082Z,31.63
2019-02-05T16:18:25.289Z,27.97
2019-02-05T16:20:54.207Z,28.03
2019-02-05T16:23:23.287Z,28.13
2019-02-05T16:25:52.223Z,29.00
2019-02-05T16:28:21.212Z,28.93
2019-02-05T16:30:50.202Z,31.60
2019-02-05T16:33:19.098Z,25.90
2019-02-05T16:35:47.921Z,28.00
2019-02-05T16:38:17.206Z,28.37
2019-02-05T16:40:46.349Z,25.93
2019-02-05T16:43:15.346Z,28.63
2019-02-05T16:45:45.436Z,30.57
2019-02-05T16:48:14.573Z,27.60
2019-02-05T16:50:44.731Z,26.80
2019-02-05T16:53:14.017Z,26.03
2019-02-05T16:55:43.073Z,27.93
2019-02-05T16:58:12.247Z,26.97
2019-02-05T17:00:41.464Z,28.10
2019-02-05T17:03:10.450Z,30.87
2019-02-05T17:05:40.867Z,27.53
2019-02-05T17:08:10.510Z,25.03
2019-02-05T17:10:39.539Z,27.77
2019-02-05T17:13:11.482Z,25.60
2019-02-05T17:15:39.283Z,28.83
2019-02-05T17:18:08.363Z,30.50
2019-02-05T17:20:37.780Z,29.57
2019-02-05T17:23:07.248Z,29.50
2019-02-05T17:25:36.446Z,29.40
2019-02-05T17:28:06.103Z,31.33
2019-02-05T17:30:37.234Z,26.00
2019-02-05T17:33:07.025Z,29.07
2019-02-05T17:35:37.171Z,29.30
2019-02-05T17:38:09.482Z,30.23
2019-02-05T17:40:38.530Z,28.57
2019-02-05T17:43:07.930Z,31.40
2019-02-05T17:45:38.920Z,28.60
2019-02-05T17:48:10.351Z,29.37
2019-02-05T17:50:39.404Z,28.13
2019-02-05T17:53:08.449Z,32.43
2019-02-05T17:55:37.507Z,27.57
2019-02-05T17:58:06.647Z,26.83
2019-02-05T18:00:45.690Z,30.83
2019-02-05T18:03:14.740Z,26.37
2019-02-05T18:05:44.086Z,28.40
2019-02-05T18:08:13.392Z,29.13
2019-02-05T18:10:42.591Z,33.77
2019-02-05T18:13:11.731Z,27.40
2019-02-05T18:15:40.947Z,29.47
2019-02-05T18:18:10.418Z,28.90
2019-02-05T18:20:39.477Z,30.73
2019-02-05T18:23:08.802Z,27.63
2019-02-05T18:25:37.934Z,25.87
2019-02-05T18:28:07.176Z,26.77
2019-02-05T18:30:36.623Z,27.63
2019-02-05T18:33:06.214Z,28.07
2019-02-05T18:35:36.553Z,27.40
2019-02-05T18:38:06.955Z,29.83
2019-02-05T18:40:36.231Z,27.93
2019-02-05T18:43:05.706Z,27.53
2019-02-05T18:45:34.735Z,31.40
2019-02-05T18:48:03.706Z,30.33
2019-02-05T18:50:33.091Z,26.17
2019-02-05T18:53:02.480Z,24.97
2019-02-05T18:55:32.134Z,26.00
2019-02-05T18:58:08.947Z,25.87
2019-02-05T19:00:38.694Z,27.43
2019-02-05T19:03:14.878Z,26.77
2019-02-05T19:05:38.246Z,28.50
2019-02-05T19:08:07.968Z,26.10
2019-02-05T19:10:37.070Z,28.37
2019-02-05T19:13:06.551Z,26.27
2019-02-05T19:15:54.604Z,26.47
2019-02-05T19:18:23.642Z,26.50
2019-02-05T19:20:52.567Z,25.47
2019-02-05T19:23:21.560Z,24.23
2019-02-05T19:26:11.759Z,27.37
2019-02-05T19:28:41.588Z,25.77
2019-02-05T19:31:19.717Z,26.57
2019-02-05T19:33:48.575Z,24.13
2019-02-05T19:36:17.442Z,24.33
2019-02-05T19:38:46.835Z,27.60
2019-02-05T19:41:15.806Z,25.47
2019-02-05T19:43:44.776Z,27.00
2019-02-05T19:46:39.348Z,26.23
2019-02-05T19:49:21.715Z,25.57
2019-02-05T19:51:50.477Z,26.43
2019-02-05T19:54:20.026Z,27.30
2019-02-05T19:56:49.006Z,29.50
2019-02-05T19:59:18.599Z,26.83
2019-02-05T20:01:47.773Z,28.27
2019-02-05T20:04:16.868Z,27.37
2019-02-05T20:06:46.189Z,25.33
2019-02-05T20:09:15.451Z,29.67
2019-02-05T20:11:44.367Z,30.37
2019-02-05T20:14:15.096Z,30.97
2019-02-05T20:16:47.003Z,32.03
2019-02-05T20:19:17.124Z,31.23
2019-02-05T20:21:46.360Z,33.37
2019-02-05T20:24:15.835Z,27.40
2019-02-05T20:26:47.547Z,33.20
2019-02-05T20:29:16.779Z,27.63
2019-02-05T20:31:46.322Z,27.90
2019-02-05T20:34:15.702Z,30.00
2019-02-05T20:36:45.971Z,28.83
2019-02-05T20:39:17.020Z,31.23
2019-02-05T20:41:45.992Z,33.13
2019-02-05T20:44:15.173Z,33.67
2019-02-05T20:46:44.215Z,29.50
2019-02-05T20:49:14.096Z,27.37
2019-02-05T20:51:44.002Z,29.40
2019-02-05T20:54:19.418Z,28.77
2019-02-05T20:56:49.487Z,28.37
2019-02-05T20:59:19.376Z,31.30
2019-02-05T21:01:48.413Z,30.13
2019-02-05T21:04:17.612Z,28.63
2019-02-05T21:06:47.076Z,31.10
2019-02-05T21:09:20.507Z,28.40
2019-02-05T21:11:50.351Z,32.23
2019-02-05T21:14:20.117Z,34.37
2019-02-05T21:16:49.671Z,34.23
2019-02-05T21:19:19.630Z,37.00
2019-02-05T21:21:49.200Z,38.70
2019-02-05T21:24:18.728Z,36.40
2019-02-05T21:26:48.188Z,35.03
2019-02-05T21:29:17.530Z,36.33
2019-02-05T21:31:46.471Z,38.43
2019-02-05T21:34:16.223Z,33.53
2019-02-05T21:36:45.621Z,34.13
2019-02-05T21:39:15.243Z,34.67
2019-02-05T21:41:44.872Z,36.80
2019-02-05T21:44:13.952Z,35.10
2019-02-05T21:46:43.400Z,34.67
2019-02-05T21:49:12.791Z,42.20
2019-02-05T21:51:42.463Z,40.57
2019-02-05T21:54:12.626Z,38.93
2019-02-05T21:56:42.802Z,39.73
2019-02-05T21:59:11.905Z,40.13
2019-02-05T22:01:41.102Z,38.93
2019-02-05T22:04:10.335Z,37.57
2019-02-05T22:06:39.620Z,42.63
2019-02-05T22:09:11.874Z,44.47
2019-02-05T22:11:41.450Z,47.70
2019-02-05T22:14:10.567Z,45.03
2019-02-05T22:16:39.763Z,44.20
2019-02-05T22:19:09.685Z,47.77
2019-02-05T22:21:39.710Z,45.40
2019-02-05T22:24:09.168Z,46.50
2019-02-05T22:26:38.450Z,52.63
2019-02-05T22:29:08.299Z,52.37
2019-02-05T22:31:38.319Z,54.07
2019-02-05T22:34:09.454Z,58.60
2019-02-05T22:36:38.808Z,56.63
2019-02-05T22:39:10.436Z,59.60
2019-02-05T22:41:39.707Z,57.50
2019-02-05T22:44:08.826Z,54.47
2019-02-05T22:46:37.947Z,55.93
2019-02-05T22:49:07.577Z,61.30
2019-02-05T22:51:37.147Z,59.57
2019-02-05T22:54:06.582Z,56.13
2019-02-05T22:56:36.072Z,57.30
2019-02-05T22:59:05.731Z,63.80
2019-02-05T23:01:54.552Z,62.40
2019-02-05T23:05:16.209Z,57.47
2019-02-05T23:07:45.813Z,61.93
2019-02-05T23:11:03.725Z,57.00
2019-02-05T23:13:33.864Z,62.53
2019-02-05T23:16:03.121Z,61.83
2019-02-05T23:18:32.173Z,57.63
2019-02-05T23:21:01.176Z,53.27
2019-02-05T23:23:30.226Z,50.40
2019-02-05T23:25:59.186Z,47.00
2019-02-05T23:28:28.021Z,52.57
2019-02-05T23:30:56.889Z,50.60
2019-02-05T23:33:25.856Z,50.83
2019-02-05T23:35:54.727Z,52.47
2019-02-05T23:38:29.497Z,52.90
2019-02-05T23:40:54.090Z,51.87
2019-02-05T23:43:23.062Z,50.43
2019-02-05T23:46:01.309Z,48.20
2019-02-05T23:48:22.949Z,53.23
2019-02-05T23:50:51.804Z,50.90
2019-02-05T23:53:20.785Z,53.87
2019-02-05T23:55:49.734Z,54.77
2019-02-05T23:58:18.564Z,53.07
